createdAt,value
2023-03-21T00:01:53.021Z,8.95
2023-03-21T00:04:20.960Z,8.94
2023-03-21T00:06:48.936Z,8.94
2023-03-21T00:09:16.657Z,8.98
2023-03-21T00:11:44.650Z,8.93
2023-03-21T00:14:15.074Z,8.86
2023-03-21T00:16:45.778Z,8.87
2023-03-21T00:19:15.861Z,9.01
2023-03-21T00:22:03.329Z,8.87
2023-03-21T00:24:31.793Z,8.78
2023-03-21T00:27:12.519Z,8.91
2023-03-21T00:29:49.264Z,8.83
2023-03-21T00:32:17.050Z,8.73
2023-03-21T00:34:58.816Z,8.73
2023-03-21T00:37:30.134Z,8.80
2023-03-21T00:39:57.820Z,8.81
2023-03-21T00:42:26.353Z,8.78
2023-03-21T00:44:54.054Z,8.84
2023-03-21T00:47:23.596Z,8.77
2023-03-21T00:49:53.438Z,8.71
2023-03-21T00:52:34.150Z,8.80
2023-03-21T00:55:09.057Z,8.83
2023-03-21T00:57:39.679Z,8.79
2023-03-21T01:00:10.097Z,8.78
2023-03-21T01:02:37.884Z,8.75
2023-03-21T01:05:07.968Z,8.71
2023-03-21T01:07:35.663Z,8.71
2023-03-21T01:10:03.396Z,8.61
2023-03-21T01:12:31.115Z,8.62
2023-03-21T01:14:58.876Z,8.60
2023-03-21T01:17:26.712Z,8.63
2023-03-21T01:19:54.452Z,8.57
2023-03-21T01:22:24.386Z,8.56
2023-03-21T01:24:58.511Z,8.60
2023-03-21T01:27:28.402Z,8.58
2023-03-21T01:29:56.229Z,8.47
2023-03-21T01:32:23.887Z,8.43
2023-03-21T01:34:51.582Z,8.43
2023-03-21T01:37:19.874Z,8.49
2023-03-21T01:39:49.006Z,8.49
2023-03-21T01:42:17.029Z,8.47
2023-03-21T01:44:55.366Z,8.49
2023-03-21T01:47:23.228Z,8.40
2023-03-21T01:49:53.670Z,8.51
2023-03-21T01:52:40.293Z,8.37
2023-03-21T01:55:13.173Z,8.37
2023-03-21T01:57:58.519Z,8.31
2023-03-21T02:00:33.756Z,8.28
2023-03-21T02:03:13.753Z,8.33
2023-03-21T02:05:53.338Z,8.25
2023-03-21T02:08:25.844Z,8.28
2023-03-21T02:11:02.432Z,8.26
2023-03-21T02:13:30.091Z,8.27
2023-03-21T02:16:02.619Z,8.23
2023-03-21T02:18:38.607Z,8.33
2023-03-21T02:21:44.736Z,8.37
2023-03-21T02:25:08.174Z,8.23
2023-03-21T02:27:43.536Z,8.28
2023-03-21T02:30:52.104Z,8.30
2023-03-21T02:33:38.843Z,8.28
2023-03-21T02:36:25.616Z,8.29
2023-03-21T02:39:03.837Z,8.30
2023-03-21T02:41:41.515Z,8.28
2023-03-21T02:44:18.044Z,8.22
2023-03-21T02:47:02.986Z,8.35
2023-03-21T02:49:38.288Z,8.14
2023-03-21T02:52:17.075Z,8.14
2023-03-21T02:54:53.125Z,8.16
2023-03-21T02:57:24.048Z,8.21
2023-03-21T03:00:02.380Z,8.12
2023-03-21T03:02:33.022Z,8.09
2023-03-21T03:05:02.858Z,8.11
2023-03-21T03:07:46.898Z,8.08
2023-03-21T03:10:52.800Z,8.20
2023-03-21T03:13:36.251Z,8.11
2023-03-21T03:16:15.549Z,8.16
2023-03-21T03:18:51.217Z,8.09
2023-03-21T03:21:25.362Z,8.07
2023-03-21T03:23:55.143Z,7.98
2023-03-21T03:26:30.330Z,8.00
2023-03-21T03:29:02.889Z,7.94
2023-03-21T03:31:36.322Z,7.99
2023-03-21T03:34:08.330Z,8.02
2023-03-21T03:36:40.591Z,7.98
2023-03-21T03:39:11.564Z,7.89
2023-03-21T03:42:06.112Z,7.92
2023-03-21T03:44:34.062Z,7.94
2023-03-21T03:47:06.328Z,7.93
2023-03-21T03:49:39.361Z,7.99
2023-03-21T03:52:13.465Z,7.91
2023-03-21T03:54:44.905Z,7.94
2023-03-21T03:57:15.006Z,7.99
2023-03-21T03:59:45.226Z,7.86
2023-03-21T04:02:13.417Z,7.89
2023-03-21T04:04:41.878Z,7.84
2023-03-21T04:07:09.885Z,7.88
2023-03-21T04:09:44.689Z,7.82
2023-03-21T04:12:14.826Z,7.83
2023-03-21T04:14:46.110Z,7.74
2023-03-21T04:17:15.000Z,7.77
2023-03-21T04:19:42.919Z,7.77
2023-03-21T04:22:10.796Z,7.82
2023-03-21T04:24:38.645Z,7.79
2023-03-21T04:27:07.076Z,7.77
2023-03-21T04:29:36.231Z,7.66
2023-03-21T04:32:04.001Z,7.67
2023-03-21T04:34:31.808Z,7.62
2023-03-21T04:36:59.620Z,7.56
2023-03-21T04:39:27.438Z,7.50
2023-03-21T04:41:55.240Z,7.54
2023-03-21T04:44:22.988Z,7.53
2023-03-21T04:46:52.121Z,7.60
2023-03-21T04:49:20.012Z,7.53
2023-03-21T04:51:47.937Z,7.49
2023-03-21T04:56:42.825Z,7.44
2023-03-21T04:59:13.787Z,7.51
2023-03-21T05:01:43.711Z,7.48
2023-03-21T05:04:14.020Z,7.53
2023-03-21T05:06:42.464Z,7.46
2023-03-21T05:09:10.574Z,7.50
2023-03-21T05:11:41.011Z,7.58
2023-03-21T05:14:11.179Z,7.53
2023-03-21T05:16:48.364Z,7.53
2023-03-21T05:19:19.272Z,7.54
2023-03-21T05:21:47.372Z,7.47
2023-03-21T05:24:17.959Z,7.37
2023-03-21T05:26:50.195Z,7.39
2023-03-21T05:29:19.138Z,7.46
2023-03-21T05:31:47.389Z,7.44
2023-03-21T05:34:16.883Z,7.41
2023-03-21T05:36:44.648Z,7.40
2023-03-21T05:39:12.428Z,7.40
2023-03-21T05:41:40.290Z,7.43
2023-03-21T05:44:08.071Z,7.42
2023-03-21T05:46:35.893Z,7.42
2023-03-21T05:49:03.683Z,7.40
2023-03-21T05:51:32.883Z,7.40
2023-03-21T05:54:00.672Z,7.39
2023-03-21T05:56:28.515Z,7.45
2023-03-21T05:58:56.324Z,7.50
2023-03-21T06:01:24.199Z,7.58
2023-03-21T06:03:51.983Z,7.57
2023-03-21T06:06:19.775Z,7.52
2023-03-21T06:08:49.281Z,7.58
2023-03-21T06:11:24.199Z,7.59
2023-03-21T06:13:52.061Z,7.64
2023-03-21T06:16:19.834Z,7.72
2023-03-21T06:18:47.687Z,7.65
2023-03-21T06:21:15.473Z,7.54
2023-03-21T06:23:43.327Z,7.51
2023-03-21T06:26:12.455Z,7.51
2023-03-21T06:28:40.372Z,7.64
2023-03-21T06:31:08.570Z,7.59
2023-03-21T06:33:36.440Z,7.55
2023-03-21T06:36:04.358Z,7.58
2023-03-21T06:38:32.380Z,7.60
2023-03-21T06:41:00.317Z,7.74
2023-03-21T06:43:29.441Z,7.60
2023-03-21T06:45:57.200Z,7.65
2023-03-21T06:48:25.855Z,7.66
2023-03-21T06:50:54.950Z,7.58
2023-03-21T06:53:27.171Z,7.67
2023-03-21T06:55:55.881Z,7.64
2023-03-21T06:58:24.394Z,7.59
2023-03-21T07:00:53.707Z,7.37
2023-03-21T07:03:21.516Z,7.47
2023-03-21T07:05:49.354Z,7.48
2023-03-21T07:08:18.609Z,7.38
2023-03-21T07:10:46.930Z,7.53
2023-03-21T07:13:15.432Z,7.54
2023-03-21T07:15:43.315Z,7.47
2023-03-21T07:18:12.595Z,7.54
2023-03-21T07:20:40.468Z,7.49
2023-03-21T07:23:08.314Z,7.50
2023-03-21T07:25:36.551Z,7.43
2023-03-21T07:28:09.006Z,7.40
2023-03-21T07:30:37.759Z,7.53
2023-03-21T07:33:05.900Z,7.47
2023-03-21T07:35:36.592Z,7.66
2023-03-21T07:38:04.852Z,7.63
2023-03-21T07:40:32.852Z,7.64
2023-03-21T07:45:28.781Z,7.80
2023-03-21T07:47:56.604Z,7.73
2023-03-21T07:50:24.439Z,7.82
2023-03-21T07:52:53.929Z,7.81
2023-03-21T07:55:21.668Z,7.67
2023-03-21T07:57:51.548Z,7.57
2023-03-21T08:00:36.279Z,7.57
2023-03-21T08:03:04.584Z,7.60
2023-03-21T08:05:37.220Z,7.56
2023-03-21T08:08:07.414Z,7.60
2023-03-21T08:10:36.009Z,7.59
2023-03-21T08:13:04.462Z,7.63
2023-03-21T08:15:32.436Z,7.67
2023-03-21T08:18:01.006Z,7.67
2023-03-21T08:20:28.939Z,7.65
2023-03-21T08:22:56.649Z,7.69
2023-03-21T08:25:26.312Z,7.70
2023-03-21T08:27:54.462Z,7.75
2023-03-21T08:30:23.981Z,7.73
2023-03-21T08:32:52.078Z,7.75
2023-03-21T08:35:21.042Z,7.83
2023-03-21T08:37:48.874Z,7.81
2023-03-21T08:40:20.731Z,7.90
2023-03-21T08:42:49.881Z,7.92
2023-03-21T08:45:19.088Z,7.74
2023-03-21T08:47:47.254Z,7.69
2023-03-21T08:50:20.659Z,7.76
2023-03-21T08:52:49.419Z,7.80
2023-03-21T08:55:18.915Z,7.92
2023-03-21T08:57:47.441Z,7.88
2023-03-21T09:00:20.885Z,7.86
2023-03-21T09:02:51.705Z,7.93
2023-03-21T09:05:19.906Z,7.98
2023-03-21T09:07:49.574Z,7.88
2023-03-21T09:10:21.438Z,7.96
2023-03-21T09:12:51.268Z,7.89
2023-03-21T09:15:24.793Z,8.00
2023-03-21T09:17:54.224Z,8.14
2023-03-21T09:20:31.104Z,8.13
2023-03-21T09:23:01.840Z,8.23
2023-03-21T09:25:31.294Z,8.16
2023-03-21T09:27:59.611Z,8.07
2023-03-21T09:30:29.649Z,8.07
2023-03-21T09:32:57.858Z,8.13
2023-03-21T09:35:26.988Z,8.09
2023-03-21T09:37:57.501Z,7.99
2023-03-21T09:40:45.313Z,8.16
2023-03-21T09:43:27.437Z,8.22
2023-03-21T09:46:03.992Z,8.12
2023-03-21T09:48:46.996Z,8.26
2023-03-21T09:51:23.712Z,8.25
2023-03-21T09:53:52.554Z,8.27
2023-03-21T09:56:21.277Z,8.25
2023-03-21T09:58:54.633Z,8.22
2023-03-21T10:01:28.401Z,8.27
2023-03-21T10:03:57.595Z,8.33
2023-03-21T10:06:30.688Z,8.13
2023-03-21T10:09:01.420Z,8.21
2023-03-21T10:11:32.242Z,8.27
2023-03-21T10:14:05.324Z,8.37
2023-03-21T10:16:37.535Z,8.39
2023-03-21T10:19:10.027Z,8.40
2023-03-21T10:21:59.872Z,8.65
2023-03-21T10:24:30.522Z,8.56
2023-03-21T10:26:58.674Z,8.65
2023-03-21T10:29:30.024Z,8.71
2023-03-21T10:31:59.160Z,8.75
2023-03-21T10:34:36.513Z,8.85
2023-03-21T10:37:05.769Z,8.87
2023-03-21T10:39:37.211Z,8.92
2023-03-21T10:42:05.140Z,8.73
2023-03-21T10:44:34.618Z,8.83
2023-03-21T10:47:07.905Z,8.83
2023-03-21T10:49:56.484Z,8.82
2023-03-21T10:52:29.736Z,8.93
2023-03-21T10:55:09.432Z,9.07
2023-03-21T10:57:38.256Z,9.03
2023-03-21T11:00:14.947Z,8.98
2023-03-21T11:02:48.797Z,9.14
2023-03-21T11:05:22.527Z,9.04
2023-03-21T11:07:59.603Z,9.04
2023-03-21T11:10:32.543Z,9.13
2023-03-21T11:13:05.073Z,9.10
2023-03-21T11:15:39.235Z,9.18
2023-03-21T11:18:18.946Z,9.15
2023-03-21T11:20:52.078Z,9.26
2023-03-21T11:23:21.080Z,9.24
2023-03-21T11:25:51.048Z,9.16
2023-03-21T11:28:23.306Z,9.23
2023-03-21T11:30:54.161Z,9.27
2023-03-21T11:33:26.981Z,9.25
2023-03-21T11:36:03.078Z,9.35
2023-03-21T11:38:33.711Z,9.35
2023-03-21T11:41:03.197Z,9.36
2023-03-21T11:43:33.092Z,9.33
2023-03-21T11:46:06.424Z,9.36
2023-03-21T11:48:40.836Z,9.43
2023-03-21T11:51:20.269Z,9.45
2023-03-21T11:53:57.342Z,9.45
2023-03-21T11:56:28.360Z,9.43
2023-03-21T11:59:17.633Z,9.52
2023-03-21T12:02:06.515Z,9.53
2023-03-21T12:04:42.206Z,9.54
2023-03-21T12:07:34.724Z,9.57
2023-03-21T12:10:18.025Z,9.60
2023-03-21T12:12:55.872Z,9.63
2023-03-21T12:15:29.328Z,9.63
2023-03-21T12:18:06.937Z,9.58
2023-03-21T12:20:42.030Z,9.55
2023-03-21T12:23:26.742Z,9.60
2023-03-21T12:26:04.989Z,9.64
2023-03-21T12:28:42.213Z,9.67
2023-03-21T12:31:22.012Z,9.66
2023-03-21T12:34:04.435Z,9.65
2023-03-21T12:36:43.576Z,9.63
2023-03-21T12:39:24.788Z,9.77
2023-03-21T12:42:05.832Z,9.78
2023-03-21T12:44:36.821Z,9.77
2023-03-21T12:47:08.891Z,9.76
2023-03-21T12:49:42.416Z,9.82
2023-03-21T12:52:15.521Z,9.85
2023-03-21T12:54:49.569Z,9.84
2023-03-21T12:57:19.456Z,9.84
2023-03-21T12:59:55.018Z,10.05
2023-03-21T13:02:27.761Z,9.95
2023-03-21T13:05:04.568Z,9.93
2023-03-21T13:07:37.028Z,10.00
2023-03-21T13:10:14.702Z,9.94
2023-03-21T13:12:48.694Z,9.92
2023-03-21T13:15:36.486Z,10.03
2023-03-21T13:18:16.754Z,10.12
2023-03-21T13:20:48.487Z,9.96
2023-03-21T13:23:19.508Z,10.02
2023-03-21T13:25:48.879Z,10.22
2023-03-21T13:28:23.048Z,10.20
2023-03-21T13:30:51.653Z,10.11
2023-03-21T13:33:25.814Z,10.17
2023-03-21T13:36:05.241Z,10.28
2023-03-21T13:38:36.443Z,10.27
2023-03-21T13:41:08.920Z,10.42
2023-03-21T13:43:43.484Z,10.50
2023-03-21T13:46:13.667Z,10.54
2023-03-21T13:49:00.419Z,10.41
2023-03-21T13:51:44.800Z,10.51
2023-03-21T13:54:24.226Z,10.42
2023-03-21T13:56:59.974Z,10.41
2023-03-21T13:59:41.340Z,10.40
2023-03-21T14:02:30.460Z,10.47
2023-03-21T14:05:08.861Z,10.41
2023-03-21T14:07:42.004Z,10.37
2023-03-21T14:10:20.306Z,10.53
2023-03-21T14:12:48.522Z,10.52
2023-03-21T14:15:20.436Z,10.45
2023-03-21T14:17:53.946Z,10.46
2023-03-21T14:20:23.581Z,10.57
2023-03-21T14:22:51.392Z,10.48
2023-03-21T14:25:24.347Z,10.69
2023-03-21T14:27:55.691Z,10.71
2023-03-21T14:30:27.068Z,10.74
2023-03-21T14:32:57.357Z,10.74
2023-03-21T14:35:26.486Z,10.71
2023-03-21T14:37:54.124Z,10.69
2023-03-21T14:40:27.046Z,10.63
2023-03-21T14:42:55.859Z,10.56
2023-03-21T14:45:25.584Z,10.51
2023-03-21T14:47:58.500Z,10.46
2023-03-21T14:50:35.767Z,10.44
2023-03-21T14:53:04.087Z,10.44
2023-03-21T14:55:33.186Z,10.58
2023-03-21T14:58:00.911Z,10.72
2023-03-21T15:00:31.570Z,10.65
2023-03-21T15:03:00.649Z,10.64
2023-03-21T15:05:32.469Z,10.63
2023-03-21T15:08:02.684Z,10.70
2023-03-21T15:10:33.278Z,10.77
2023-03-21T15:13:02.048Z,10.73
2023-03-21T15:15:31.253Z,10.68
2023-03-21T15:18:07.852Z,10.71
2023-03-21T15:20:39.051Z,10.78
2023-03-21T15:23:10.641Z,10.87
2023-03-21T15:25:40.569Z,10.87
2023-03-21T15:28:08.744Z,10.96
2023-03-21T15:30:36.524Z,10.95
2023-03-21T15:33:09.039Z,11.10
2023-03-21T15:35:39.806Z,11.13
2023-03-21T15:38:07.951Z,10.99
2023-03-21T15:40:36.196Z,11.04
2023-03-21T15:43:16.385Z,11.07
2023-03-21T15:45:49.125Z,11.20
2023-03-21T15:48:17.897Z,11.17
2023-03-21T15:50:52.930Z,11.15
2023-03-21T15:53:21.251Z,11.19
2023-03-21T15:55:52.142Z,11.16
2023-03-21T15:58:24.163Z,11.07
2023-03-21T16:00:55.456Z,11.04
2023-03-21T16:03:27.069Z,11.10
2023-03-21T16:06:16.859Z,11.10
2023-03-21T16:08:48.237Z,10.95
2023-03-21T16:11:20.673Z,10.95
2023-03-21T16:13:50.326Z,11.03
2023-03-21T16:16:21.303Z,11.09
2023-03-21T16:18:49.570Z,10.95
2023-03-21T16:21:18.734Z,10.99
2023-03-21T16:23:46.977Z,11.00
2023-03-21T16:26:16.583Z,11.01
2023-03-21T16:28:44.196Z,11.10
2023-03-21T16:31:16.162Z,10.98
2023-03-21T16:33:44.818Z,10.98
2023-03-21T16:36:15.470Z,10.89
2023-03-21T16:38:43.151Z,10.91
2023-03-21T16:41:12.215Z,10.90
2023-03-21T16:43:43.137Z,10.95
2023-03-21T16:46:15.239Z,10.88
2023-03-21T16:48:43.680Z,10.95
2023-03-21T16:51:14.317Z,11.00
2023-03-21T16:53:41.838Z,10.99
2023-03-21T16:56:16.005Z,11.10
2023-03-21T16:58:44.014Z,10.99
2023-03-21T17:01:16.316Z,10.90
2023-03-21T17:03:44.169Z,10.97
2023-03-21T17:06:14.926Z,10.85
2023-03-21T17:08:42.766Z,10.90
2023-03-21T17:11:12.193Z,10.82
2023-03-21T17:13:40.390Z,10.82
2023-03-21T17:16:08.611Z,10.92
2023-03-21T17:18:37.640Z,10.98
2023-03-21T17:21:14.672Z,10.89
2023-03-21T17:23:42.688Z,10.81
2023-03-21T17:26:10.812Z,10.76
2023-03-21T17:28:38.582Z,10.74
2023-03-21T17:31:13.174Z,10.86
2023-03-21T17:33:42.642Z,10.80
2023-03-21T17:36:14.954Z,10.73
2023-03-21T17:38:42.858Z,10.75
2023-03-21T17:41:12.863Z,10.76
2023-03-21T17:43:41.079Z,10.71
2023-03-21T17:46:11.692Z,10.68
2023-03-21T17:48:39.419Z,10.65
2023-03-21T17:51:12.701Z,10.63
2023-03-21T17:53:40.362Z,10.61
2023-03-21T17:56:13.650Z,10.60
2023-03-21T17:58:41.278Z,10.59
2023-03-21T18:01:09.072Z,10.57
2023-03-21T18:03:36.773Z,10.54
2023-03-21T18:06:04.774Z,10.54
2023-03-21T18:08:33.775Z,10.49
2023-03-21T18:11:01.464Z,10.49
2023-03-21T18:13:29.166Z,10.47
2023-03-21T18:15:56.846Z,10.47
2023-03-21T18:18:27.100Z,10.48
2023-03-21T18:20:57.683Z,10.45
2023-03-21T18:23:25.714Z,10.45
2023-03-21T18:25:54.948Z,10.42
2023-03-21T18:28:23.288Z,10.38
2023-03-21T18:33:41.283Z,10.32
2023-03-21T18:36:09.963Z,10.29
2023-03-21T18:38:38.407Z,10.32
2023-03-21T18:41:08.617Z,10.26
2023-03-21T18:44:05.284Z,10.22
2023-03-21T18:46:25.064Z,10.25
2023-03-21T18:48:52.799Z,10.24
2023-03-21T18:51:21.720Z,10.23
2023-03-21T18:53:49.424Z,10.21
2023-03-21T18:57:05.899Z,10.21
2023-03-21T18:59:07.332Z,10.16
2023-03-21T19:01:35.749Z,10.22
2023-03-21T19:04:20.860Z,10.19
2023-03-21T19:06:51.077Z,10.19
2023-03-21T19:09:18.809Z,10.19
2023-03-21T19:11:47.850Z,10.21
2023-03-21T19:14:17.282Z,10.18
2023-03-21T19:17:20.164Z,10.18
2023-03-21T19:19:33.695Z,10.21
2023-03-21T19:22:01.571Z,10.22
2023-03-21T19:24:29.391Z,10.23
2023-03-21T19:26:58.487Z,10.21
2023-03-21T19:29:26.172Z,10.22
2023-03-21T19:31:53.929Z,10.22
2023-03-21T19:34:21.734Z,10.22
2023-03-21T19:36:52.000Z,10.22
2023-03-21T19:39:22.117Z,10.20
2023-03-21T19:41:50.410Z,10.25
2023-03-21T19:44:21.501Z,10.31
2023-03-21T19:46:50.923Z,10.26
2023-03-21T19:49:23.632Z,10.21
2023-03-21T19:51:53.855Z,10.19
2023-03-21T19:54:23.394Z,10.28
2023-03-21T19:56:52.239Z,10.26
2023-03-21T19:59:21.268Z,10.19
2023-03-21T20:01:49.238Z,10.19
2023-03-21T20:04:17.871Z,10.12
2023-03-21T20:06:46.138Z,10.06
2023-03-21T20:09:49.816Z,10.03
2023-03-21T20:12:03.276Z,10.03
2023-03-21T20:14:32.571Z,10.02
2023-03-21T20:17:00.340Z,10.00
2023-03-21T20:19:28.061Z,10.00
2023-03-21T20:21:59.795Z,9.97
2023-03-21T20:24:29.960Z,9.95
2023-03-21T20:26:57.630Z,9.95
2023-03-21T20:32:14.665Z,9.97
2023-03-21T20:34:44.244Z,9.94
2023-03-21T20:37:12.859Z,9.93
2023-03-21T20:39:40.607Z,9.97
2023-03-21T20:42:08.810Z,10.02
2023-03-21T20:44:56.731Z,9.97
2023-03-21T20:47:26.319Z,9.99
2023-03-21T20:49:54.373Z,9.99
2023-03-21T20:55:12.856Z,9.98
2023-03-21T20:57:41.256Z,9.97
2023-03-21T21:00:14.826Z,9.88
2023-03-21T21:02:46.045Z,9.80
2023-03-21T21:05:25.786Z,9.76
2023-03-21T21:07:56.412Z,9.85
2023-03-21T21:10:25.323Z,9.82
2023-03-21T21:12:53.771Z,9.88
2023-03-21T21:15:22.034Z,9.82
2023-03-21T21:18:05.493Z,9.81
2023-03-21T21:20:34.141Z,9.78
2023-03-21T21:23:01.787Z,9.82
2023-03-21T21:25:30.464Z,9.76
2023-03-21T21:27:58.236Z,9.74
2023-03-21T21:30:26.043Z,9.71
2023-03-21T21:32:55.063Z,9.72
2023-03-21T21:35:22.927Z,9.70
2023-03-21T21:37:51.106Z,9.74
2023-03-21T21:40:22.859Z,9.67
2023-03-21T21:42:50.787Z,9.64
2023-03-21T21:45:19.250Z,9.63
2023-03-21T21:47:47.323Z,9.68
2023-03-21T21:50:16.365Z,9.75
2023-03-21T21:52:52.400Z,9.80
2023-03-21T21:55:20.271Z,9.76
2023-03-21T21:57:50.260Z,9.70
2023-03-21T22:00:20.006Z,9.63
2023-03-21T22:02:48.049Z,9.61
2023-03-21T22:05:18.845Z,9.58
2023-03-21T22:07:46.908Z,9.57
2023-03-21T22:10:15.799Z,9.57
2023-03-21T22:12:43.452Z,9.55
2023-03-21T22:15:12.999Z,9.56
2023-03-21T22:17:41.592Z,9.57
2023-03-21T22:20:12.545Z,9.65
2023-03-21T22:22:42.527Z,9.77
2023-03-21T22:25:12.933Z,9.70
2023-03-21T22:27:41.003Z,9.68
2023-03-21T22:30:13.749Z,9.65
2023-03-21T22:32:42.151Z,9.70
2023-03-21T22:35:10.905Z,9.59
2023-03-21T22:37:41.893Z,9.66
2023-03-21T22:40:11.938Z,9.72
2023-03-21T22:42:40.691Z,9.65
2023-03-21T22:45:10.404Z,9.59
2023-03-21T22:47:38.584Z,9.67
2023-03-21T22:50:07.564Z,9.59
2023-03-21T22:52:35.229Z,9.56
2023-03-21T22:55:04.475Z,9.58
2023-03-21T22:57:32.121Z,9.56
2023-03-21T22:59:59.748Z,9.64
2023-03-21T23:02:27.837Z,9.57
2023-03-21T23:04:55.794Z,9.50
2023-03-21T23:07:23.511Z,9.59
2023-03-21T23:09:51.434Z,9.56
2023-03-21T23:12:20.641Z,9.72
2023-03-21T23:14:48.352Z,9.52
2023-03-21T23:17:16.361Z,9.45
2023-03-21T23:19:44.130Z,9.39
2023-03-21T23:22:11.848Z,9.50
2023-03-21T23:24:39.475Z,9.39
2023-03-21T23:27:07.126Z,9.44
2023-03-21T23:29:36.134Z,9.46
2023-03-21T23:32:03.736Z,9.43
2023-03-21T23:34:31.562Z,9.45
2023-03-21T23:36:59.363Z,9.42
2023-03-21T23:39:28.253Z,9.40
2023-03-21T23:41:57.974Z,9.40
2023-03-21T23:44:26.358Z,9.41
2023-03-21T23:46:55.470Z,9.49
2023-03-21T23:49:23.176Z,9.42
2023-03-21T23:51:51.080Z,9.39
2023-03-21T23:54:18.784Z,9.32
2023-03-21T23:56:46.555Z,9.33
2023-03-21T23:59:14.214Z,9.31
